createdAt,value
2022-11-01T00:01:35.219Z,101772.29
2022-11-01T00:05:33.409Z,101767.00
2022-11-01T00:09:45.156Z,101760.69
2022-11-01T00:13:46.856Z,101764.56
2022-11-01T00:17:45.816Z,101766.52
2022-11-01T00:21:44.525Z,101763.89
2022-11-01T00:25:42.973Z,101764.27
2022-11-01T00:29:54.769Z,101766.39
2022-11-01T00:33:53.077Z,101763.23
2022-11-01T00:37:51.776Z,101757.63
2022-11-01T00:41:49.916Z,101753.59
2022-11-01T00:46:03.198Z,101752.76
2022-11-01T00:50:19.123Z,101747.67
2022-11-01T00:54:19.715Z,101744.34
2022-11-01T00:58:18.200Z,101742.27
2022-11-01T01:06:29.496Z,101734.93
2022-11-01T01:10:29.760Z,101727.91
2022-11-01T01:14:05.546Z,101726.18
2022-11-01T01:18:04.224Z,101724.08
2022-11-01T01:22:03.536Z,101715.81
2022-11-01T01:26:15.692Z,101717.38
2022-11-01T01:30:29.156Z,101711.72
2022-11-01T01:34:29.399Z,101714.16
2022-11-01T01:38:28.253Z,101710.45
2022-11-01T01:42:30.978Z,101713.06
2022-11-01T01:46:29.017Z,101708.65
2022-11-01T01:50:34.515Z,101704.61
2022-11-01T01:54:33.821Z,101703.18
2022-11-01T01:58:39.939Z,101700.86
2022-11-01T02:02:39.718Z,101700.67
2022-11-01T02:06:39.615Z,101693.84
2022-11-01T02:10:37.716Z,101680.17
2022-11-01T02:14:49.936Z,101674.92
2022-11-01T02:19:19.278Z,101683.92
2022-11-01T02:23:42.235Z,101689.17
2022-11-01T02:28:08.257Z,101687.80
2022-11-01T02:32:31.596Z,101682.88
2022-11-01T02:36:53.317Z,101679.20
2022-11-01T02:41:06.876Z,101669.72
2022-11-01T02:45:10.635Z,101668.11
2022-11-01T02:49:12.161Z,101674.27
2022-11-01T02:53:11.637Z,101671.65
2022-11-01T02:57:34.980Z,101672.02
2022-11-01T03:01:36.341Z,101677.98
2022-11-01T03:05:41.917Z,101683.24
2022-11-01T03:09:42.076Z,101681.11
2022-11-01T03:13:45.481Z,101683.38
2022-11-01T03:17:51.533Z,101685.11
2022-11-01T03:22:04.055Z,101689.50
2022-11-01T03:26:08.476Z,101680.52
2022-11-01T03:30:11.397Z,101677.54
2022-11-01T03:34:14.816Z,101664.91
2022-11-01T03:38:19.517Z,101669.50
2022-11-01T03:42:22.735Z,101671.09
2022-11-01T03:46:21.715Z,101674.08
2022-11-01T03:50:26.180Z,101678.65
2022-11-01T03:54:27.436Z,101676.91
2022-11-01T03:58:41.819Z,101677.60
2022-11-01T04:02:40.279Z,101678.82
2022-11-01T04:06:38.555Z,101677.95
2022-11-01T04:10:50.298Z,101673.35
2022-11-01T04:15:07.260Z,101676.00
2022-11-01T04:19:24.577Z,101678.08
2022-11-01T04:23:22.926Z,101679.80
2022-11-01T04:27:21.079Z,101677.69
2022-11-01T04:31:20.437Z,101673.30
2022-11-01T04:35:22.444Z,101669.27
2022-11-01T04:39:20.396Z,101660.49
2022-11-01T04:43:25.055Z,101651.92
2022-11-01T04:47:52.857Z,101639.80
2022-11-01T04:56:07.317Z,101623.84
2022-11-01T05:00:06.637Z,101615.94
2022-11-01T05:04:05.258Z,101615.60
2022-11-01T05:08:05.481Z,101608.77
2022-11-01T05:12:19.324Z,101601.75
2022-11-01T05:16:22.560Z,101591.77
2022-11-01T05:24:12.136Z,101570.30
2022-11-01T05:27:46.956Z,101560.27
2022-11-01T05:31:44.796Z,101557.30
2022-11-01T05:35:42.877Z,101553.26
2022-11-01T05:39:42.210Z,101553.77
2022-11-01T05:43:42.484Z,101555.36
2022-11-01T05:47:54.657Z,101553.58
2022-11-01T05:52:06.492Z,101547.26
2022-11-01T05:56:04.717Z,101545.14
2022-11-01T06:00:05.199Z,101544.98
2022-11-01T06:04:10.516Z,101542.16
2022-11-01T06:08:09.518Z,101548.30
2022-11-01T06:12:08.316Z,101549.69
2022-11-01T06:16:07.236Z,101547.19
2022-11-01T06:20:06.563Z,101547.55
2022-11-01T06:24:05.878Z,101543.48
2022-11-01T06:28:04.584Z,101543.29
2022-11-01T06:32:05.098Z,101545.73
2022-11-01T06:36:17.245Z,101551.17
2022-11-01T06:40:16.197Z,101552.95
2022-11-01T06:44:14.594Z,101553.46
2022-11-01T06:48:13.579Z,101551.91
2022-11-01T06:52:11.758Z,101553.85
2022-11-01T06:56:10.218Z,101552.80
2022-11-01T07:00:10.028Z,101561.23
2022-11-01T07:04:08.540Z,101573.19
2022-11-01T07:08:13.024Z,101567.41
2022-11-01T07:12:11.319Z,101562.85
2022-11-01T07:16:09.337Z,101558.84
2022-11-01T07:20:08.938Z,101558.15
2022-11-01T07:24:07.839Z,101553.40
2022-11-01T07:28:20.670Z,101551.45
2022-11-01T07:32:19.450Z,101549.53
2022-11-01T07:36:18.669Z,101553.92
2022-11-01T07:40:17.872Z,101554.32
2022-11-01T07:44:16.271Z,101543.77
2022-11-01T07:48:16.624Z,101539.92
2022-11-01T07:52:29.590Z,101535.88
2022-11-01T07:56:41.968Z,101535.88
2022-11-01T08:00:42.374Z,101542.41
2022-11-01T08:04:41.109Z,101550.15
2022-11-01T08:08:39.969Z,101544.36
2022-11-01T08:12:38.917Z,101541.04
2022-11-01T08:16:37.810Z,101537.53
2022-11-01T08:20:36.812Z,101538.42
2022-11-01T08:24:35.409Z,101532.46
2022-11-01T08:28:34.130Z,101522.27
2022-11-01T08:32:34.365Z,101524.58
2022-11-01T08:36:34.577Z,101525.09
2022-11-01T08:40:34.906Z,101528.25
2022-11-01T08:44:34.882Z,101529.83
2022-11-01T08:48:52.604Z,101525.30
2022-11-01T08:53:10.330Z,101517.56
2022-11-01T08:57:22.477Z,101512.48
2022-11-01T09:01:34.471Z,101517.06
2022-11-01T09:05:33.121Z,101517.59
2022-11-01T09:09:46.001Z,101520.95
2022-11-01T09:13:59.575Z,101521.84
2022-11-01T09:18:11.887Z,101530.29
2022-11-01T09:22:10.529Z,101559.17
2022-11-01T09:26:11.243Z,101572.29
2022-11-01T09:30:23.059Z,101559.52
2022-11-01T09:34:22.299Z,101542.59
2022-11-01T09:38:21.500Z,101544.14
2022-11-01T09:42:35.859Z,101527.63
2022-11-01T09:46:47.747Z,101543.80
2022-11-01T09:50:47.450Z,101531.16
2022-11-01T09:54:45.858Z,101528.36
2022-11-01T09:59:09.740Z,101537.67
2022-11-01T10:03:23.457Z,101509.87
2022-11-01T10:07:45.983Z,101516.56
2022-11-01T10:12:27.797Z,101518.33
2022-11-01T10:17:00.482Z,101514.42
2022-11-01T10:21:03.197Z,101506.45
2022-11-01T10:25:09.139Z,101496.73
2022-11-01T10:29:12.918Z,101500.73
2022-11-01T10:33:33.302Z,101499.11
2022-11-01T10:37:52.379Z,101496.45
2022-11-01T10:42:14.012Z,101491.14
2022-11-01T10:45:47.613Z,101485.00
2022-11-01T10:50:08.197Z,101484.45
2022-11-01T10:54:18.228Z,101484.08
2022-11-01T10:58:40.943Z,101476.52
2022-11-01T11:02:57.798Z,101479.67
2022-11-01T11:07:00.565Z,101466.31
2022-11-01T11:11:10.447Z,101463.46
2022-11-01T11:14:48.277Z,101467.69
2022-11-01T11:18:38.622Z,101470.34
2022-11-01T11:22:41.575Z,101466.30
2022-11-01T11:26:58.839Z,101464.16
2022-11-01T11:30:35.537Z,101464.16
2022-11-01T11:34:33.663Z,101463.60
2022-11-01T11:38:45.506Z,101483.61
2022-11-01T11:42:50.157Z,101483.46
2022-11-01T11:46:25.324Z,101481.73
2022-11-01T11:50:33.888Z,101480.54
2022-11-01T11:54:39.529Z,101481.21
2022-11-01T11:58:53.970Z,101480.80
2022-11-01T12:02:54.608Z,101479.72
2022-11-01T12:06:53.769Z,101473.91
2022-11-01T12:10:59.661Z,101468.60
2022-11-01T12:15:04.457Z,101460.70
2022-11-01T12:19:06.839Z,101469.29
2022-11-01T12:23:31.385Z,101481.57
2022-11-01T12:27:33.785Z,101478.07
2022-11-01T12:31:33.129Z,101477.39
2022-11-01T12:35:48.950Z,101470.04
2022-11-01T12:40:17.448Z,101464.92
2022-11-01T12:44:40.702Z,101460.15
2022-11-01T12:49:11.857Z,101459.63
2022-11-01T12:53:40.011Z,101455.91
2022-11-01T13:02:26.368Z,101450.44
2022-11-01T13:07:08.112Z,101467.66
2022-11-01T13:11:20.937Z,101475.73
2022-11-01T13:15:31.673Z,101466.44
2022-11-01T13:19:43.596Z,101456.07
2022-11-01T13:23:49.375Z,101442.92
2022-11-01T13:28:02.722Z,101435.55
2022-11-01T13:32:35.143Z,101429.76
2022-11-01T13:36:45.730Z,101434.86
2022-11-01T13:41:20.759Z,101429.45
2022-11-01T13:45:58.876Z,101418.05
2022-11-01T13:50:05.010Z,101409.29
2022-11-01T13:54:24.319Z,101406.14
2022-11-01T13:58:24.116Z,101401.05
2022-11-01T14:02:28.148Z,101390.68
2022-11-01T14:06:36.581Z,101379.10
2022-11-01T14:10:38.457Z,101372.73
2022-11-01T14:14:38.796Z,101377.48
2022-11-01T14:19:05.963Z,101376.05
2022-11-01T14:23:28.801Z,101385.69
2022-11-01T14:27:48.851Z,101380.41
2022-11-01T14:31:53.922Z,101382.86
2022-11-01T14:35:57.438Z,101372.31
2022-11-01T14:40:04.556Z,101357.91
2022-11-01T14:44:18.439Z,101361.41
2022-11-01T14:48:28.880Z,101357.02
2022-11-01T14:52:40.876Z,101350.52
2022-11-01T14:56:41.155Z,101356.65
2022-11-01T15:00:41.019Z,101367.53
2022-11-01T15:04:43.814Z,101357.35
2022-11-01T15:08:47.251Z,101360.33
2022-11-01T15:12:22.619Z,101347.88
2022-11-01T15:16:30.521Z,101322.58
2022-11-01T15:20:20.595Z,101337.48
2022-11-01T15:23:38.507Z,101348.74
2022-11-01T15:27:41.274Z,101359.46
2022-11-01T15:31:50.443Z,101362.63
2022-11-01T15:40:35.899Z,101379.15
2022-11-01T15:44:34.236Z,101363.21
2022-11-01T15:48:35.815Z,101366.02
2022-11-01T15:52:36.026Z,101362.34
2022-11-01T15:56:44.161Z,101350.58
2022-11-01T16:00:46.637Z,101345.84
2022-11-01T16:04:47.225Z,101362.34
2022-11-01T16:08:57.757Z,101361.65
2022-11-01T16:12:59.097Z,101360.27
2022-11-01T16:17:06.961Z,101366.08
2022-11-01T16:21:28.616Z,101386.63
2022-11-01T16:25:29.949Z,101392.61
2022-11-01T16:29:52.034Z,101396.14
2022-11-01T16:33:50.828Z,101394.73
2022-11-01T16:37:49.511Z,101395.24
2022-11-01T16:41:48.887Z,101390.69
2022-11-01T16:45:47.109Z,101391.77
2022-11-01T16:49:48.721Z,101391.60
2022-11-01T16:53:52.732Z,101396.90
2022-11-01T16:57:30.079Z,101402.36
2022-11-01T17:01:04.804Z,101396.56
2022-11-01T17:05:19.527Z,101398.85
2022-11-01T17:09:19.990Z,101397.98
2022-11-01T17:13:50.868Z,101397.48
2022-11-01T17:17:20.088Z,101392.41
2022-11-01T17:21:39.110Z,101395.05
2022-11-01T17:25:54.949Z,101393.66
2022-11-01T17:29:29.917Z,101399.81
2022-11-01T17:33:28.456Z,101401.05
2022-11-01T17:37:31.598Z,101401.38
2022-11-01T17:41:30.995Z,101401.56
2022-11-01T17:45:29.995Z,101401.73
2022-11-01T17:49:28.989Z,101399.27
2022-11-01T17:53:27.702Z,101395.76
2022-11-01T17:57:26.309Z,101401.88
2022-11-01T18:01:40.325Z,101401.70
2022-11-01T18:05:40.469Z,101399.23
2022-11-01T18:09:39.837Z,101395.16
2022-11-01T18:13:53.749Z,101395.17
2022-11-01T18:18:27.948Z,101397.98
2022-11-01T18:22:45.927Z,101399.02
2022-11-01T18:26:58.623Z,101400.98
2022-11-01T18:30:58.966Z,101398.36
2022-11-01T18:35:03.324Z,101397.31
2022-11-01T18:39:40.446Z,101399.60
2022-11-01T18:43:38.967Z,101401.71
2022-11-01T18:48:19.910Z,101408.93
2022-11-01T18:52:19.933Z,101407.70
2022-11-01T18:56:22.549Z,101409.30
2022-11-01T19:00:23.929Z,101411.27
2022-11-01T19:04:13.943Z,101410.55
2022-11-01T19:08:27.186Z,101408.61
2022-11-01T19:12:43.268Z,101409.33
2022-11-01T19:16:42.761Z,101405.64
2022-11-01T19:20:53.515Z,101405.84
2022-11-01T19:24:52.112Z,101405.30
2022-11-01T19:28:52.611Z,101402.84
2022-11-01T19:32:54.373Z,101401.63
2022-11-01T19:37:22.615Z,101399.70
2022-11-01T19:45:58.041Z,101399.52
2022-11-01T19:49:56.617Z,101404.64
2022-11-01T19:53:55.295Z,101404.81
2022-11-01T20:02:17.298Z,101403.77
2022-11-01T20:06:21.496Z,101398.48
2022-11-01T20:10:19.841Z,101399.53
2022-11-01T20:14:33.528Z,101398.46
2022-11-01T20:18:32.345Z,101402.15
2022-11-01T20:27:01.161Z,101405.50
2022-11-01T20:31:00.047Z,101408.14
2022-11-01T20:35:13.263Z,101410.58
2022-11-01T20:39:14.679Z,101415.50
2022-11-01T20:43:28.783Z,101417.23
2022-11-01T20:47:27.422Z,101412.64
2022-11-01T20:51:41.015Z,101409.65
2022-11-01T20:55:39.493Z,101416.15
2022-11-01T20:59:38.182Z,101416.84
2022-11-01T21:03:36.892Z,101415.09
2022-11-01T21:07:35.833Z,101420.00
2022-11-01T21:11:47.194Z,101419.83
2022-11-01T21:15:46.800Z,101419.48
2022-11-01T21:19:54.210Z,101422.45
2022-11-01T21:23:53.118Z,101419.80
2022-11-01T21:27:51.943Z,101419.96
2022-11-01T21:31:50.791Z,101416.65
2022-11-01T21:35:53.245Z,101415.96
2022-11-01T21:40:23.109Z,101414.73
2022-11-01T21:44:27.549Z,101418.42
2022-11-01T21:52:46.439Z,101417.04
2022-11-01T21:56:48.188Z,101417.37
2022-11-01T22:00:47.912Z,101413.86
2022-11-01T22:05:01.782Z,101411.41
2022-11-01T22:09:02.250Z,101411.41
2022-11-01T22:13:06.855Z,101412.45
2022-11-01T22:17:19.589Z,101410.70
2022-11-01T22:21:18.361Z,101412.11
2022-11-01T22:25:16.999Z,101413.52
2022-11-01T22:29:15.480Z,101417.02
2022-11-01T22:33:14.437Z,101415.98
2022-11-01T22:37:15.649Z,101416.67
2022-11-01T22:41:35.252Z,101421.62
2022-11-01T22:45:34.892Z,101420.39
2022-11-01T22:49:37.011Z,101425.87
2022-11-01T22:53:36.802Z,101419.00
2022-11-01T22:57:45.958Z,101419.37
2022-11-01T23:01:45.239Z,101418.33
2022-11-01T23:05:44.360Z,101421.49
2022-11-01T23:10:06.228Z,101427.99
2022-11-01T23:14:45.387Z,101430.63
2022-11-01T23:18:45.621Z,101433.62
2022-11-01T23:22:45.678Z,101438.17
2022-11-01T23:26:58.389Z,101439.40
2022-11-01T23:31:02.141Z,101435.37
2022-11-01T23:35:19.143Z,101434.32
2022-11-01T23:39:35.489Z,101432.22
2022-11-01T23:43:40.855Z,101426.42
2022-11-01T23:47:42.690Z,101423.27
2022-11-01T23:51:42.404Z,101426.25
2022-11-01T23:55:48.841Z,101432.20
